sensor_id;sensor_type;location;lat;lon;timestamp;P1;durP1;ratioP1;P2;durP2;ratioP2
67051;SDS011;53957;47.222;18.670;2023-04-07T00:03:01;19.37;;;10.88;;
67051;SDS011;53957;47.222;18.670;2023-04-07T00:06:09;13.85;;;10.35;;
67051;SDS011;53957;47.222;18.670;2023-04-07T00:09:31;14.70;;;11.35;;
67051;SDS011;53957;47.222;18.670;2023-04-07T00:12:34;13.80;;;10.18;;
67051;SDS011;53957;47.222;18.670;2023-04-07T00:15:37;12.40;;;10.25;;
67051;SDS011;53957;47.222;18.670;2023-04-07T00:18:41;15.13;;;10.75;;
67051;SDS011;53957;47.222;18.670;2023-04-07T00:21:43;13.98;;;10.73;;
67051;SDS011;53957;47.222;18.670;2023-04-07T00:24:47;13.65;;;10.00;;
67051;SDS011;53957;47.222;18.670;2023-04-07T00:27:49;15.93;;;10.65;;
67051;SDS011;53957;47.222;18.670;2023-04-07T00:30:55;13.25;;;9.38;;
67051;SDS011;53957;47.222;18.670;2023-04-07T00:33:58;14.07;;;9.77;;
67051;SDS011;53957;47.222;18.670;2023-04-07T00:37:01;14.00;;;10.05;;
67051;SDS011;53957;47.222;18.670;2023-04-07T00:40:04;13.10;;;9.50;;
67051;SDS011;53957;47.222;18.670;2023-04-07T00:43:08;10.63;;;8.70;;
67051;SDS011;53957;47.222;18.670;2023-04-07T00:46:11;13.50;;;9.20;;
67051;SDS011;53957;47.222;18.670;2023-04-07T00:49:15;15.57;;;9.80;;
67051;SDS011;53957;47.222;18.670;2023-04-07T00:52:21;12.15;;;9.45;;
67051;SDS011;53957;47.222;18.670;2023-04-07T00:55:30;15.38;;;9.98;;
67051;SDS011;53957;47.222;18.670;2023-04-07T00:58:33;14.68;;;9.50;;
67051;SDS011;53957;47.222;18.670;2023-04-07T01:09:02;14.30;;;9.77;;
67051;SDS011;53957;47.222;18.670;2023-04-07T01:15:15;14.27;;;9.45;;
67051;SDS011;53957;47.222;18.670;2023-04-07T01:18:28;11.40;;;8.45;;
67051;SDS011;53957;47.222;18.670;2023-04-07T01:21:35;13.80;;;9.48;;
67051;SDS011;53957;47.222;18.670;2023-04-07T01:28:09;10.80;;;8.73;;
67051;SDS011;53957;47.222;18.670;2023-04-07T01:31:24;9.30;;;8.40;;
67051;SDS011;53957;47.222;18.670;2023-04-07T01:34:30;10.82;;;8.43;;
67051;SDS011;53957;47.222;18.670;2023-04-07T01:37:34;10.90;;;8.60;;
67051;SDS011;53957;47.222;18.670;2023-04-07T01:40:39;11.30;;;9.00;;
67051;SDS011;53957;47.222;18.670;2023-04-07T01:43:42;9.63;;;8.00;;
67051;SDS011;53957;47.222;18.670;2023-04-07T01:46:48;12.23;;;8.93;;
67051;SDS011;53957;47.222;18.670;2023-04-07T01:49:52;12.02;;;8.10;;
67051;SDS011;53957;47.222;18.670;2023-04-07T01:52:56;12.00;;;9.60;;
67051;SDS011;53957;47.222;18.670;2023-04-07T01:56:00;13.32;;;9.50;;
67051;SDS011;53957;47.222;18.670;2023-04-07T01:59:04;9.48;;;8.48;;
67051;SDS011;53957;47.222;18.670;2023-04-07T02:02:07;10.63;;;9.02;;
67051;SDS011;53957;47.222;18.670;2023-04-07T02:05:11;12.85;;;9.80;;
67051;SDS011;53957;47.222;18.670;2023-04-07T02:08:17;10.02;;;8.55;;
67051;SDS011;53957;47.222;18.670;2023-04-07T02:11:24;10.70;;;9.07;;
67051;SDS011;53957;47.222;18.670;2023-04-07T02:14:29;13.55;;;9.40;;
67051;SDS011;53957;47.222;18.670;2023-04-07T02:17:33;13.43;;;9.25;;
67051;SDS011;53957;47.222;18.670;2023-04-07T02:20:40;15.50;;;10.63;;
67051;SDS011;53957;47.222;18.670;2023-04-07T02:23:45;11.07;;;9.35;;
67051;SDS011;53957;47.222;18.670;2023-04-07T02:26:48;12.70;;;8.95;;
67051;SDS011;53957;47.222;18.670;2023-04-07T02:29:52;17.15;;;9.77;;
67051;SDS011;53957;47.222;18.670;2023-04-07T02:32:57;11.55;;;9.23;;
67051;SDS011;53957;47.222;18.670;2023-04-07T02:36:00;13.68;;;9.60;;
67051;SDS011;53957;47.222;18.670;2023-04-07T02:39:03;13.25;;;9.55;;
67051;SDS011;53957;47.222;18.670;2023-04-07T02:42:07;15.63;;;10.30;;
67051;SDS011;53957;47.222;18.670;2023-04-07T02:45:10;12.10;;;9.80;;
67051;SDS011;53957;47.222;18.670;2023-04-07T02:48:13;14.85;;;10.02;;
67051;SDS011;53957;47.222;18.670;2023-04-07T02:51:17;18.40;;;11.18;;
67051;SDS011;53957;47.222;18.670;2023-04-07T02:54:20;13.95;;;9.93;;
67051;SDS011;53957;47.222;18.670;2023-04-07T02:57:23;15.38;;;11.43;;
67051;SDS011;53957;47.222;18.670;2023-04-07T03:00:27;16.33;;;10.80;;
67051;SDS011;53957;47.222;18.670;2023-04-07T03:03:30;16.92;;;11.57;;
67051;SDS011;53957;47.222;18.670;2023-04-07T03:06:34;13.23;;;10.80;;
67051;SDS011;53957;47.222;18.670;2023-04-07T03:09:37;13.85;;;10.05;;
67051;SDS011;53957;47.222;18.670;2023-04-07T03:12:41;13.48;;;10.38;;
67051;SDS011;53957;47.222;18.670;2023-04-07T03:15:45;13.25;;;10.73;;
67051;SDS011;53957;47.222;18.670;2023-04-07T03:18:50;14.77;;;11.75;;
67051;SDS011;53957;47.222;18.670;2023-04-07T03:21:53;14.87;;;11.10;;
67051;SDS011;53957;47.222;18.670;2023-04-07T03:24:57;15.25;;;11.05;;
67051;SDS011;53957;47.222;18.670;2023-04-07T03:27:59;16.52;;;11.35;;
67051;SDS011;53957;47.222;18.670;2023-04-07T03:31:03;12.82;;;10.68;;
67051;SDS011;53957;47.222;18.670;2023-04-07T03:34:06;14.20;;;11.18;;
67051;SDS011;53957;47.222;18.670;2023-04-07T03:37:09;15.50;;;12.05;;
67051;SDS011;53957;47.222;18.670;2023-04-07T03:40:12;17.50;;;10.77;;
67051;SDS011;53957;47.222;18.670;2023-04-07T03:43:17;13.85;;;11.50;;
67051;SDS011;53957;47.222;18.670;2023-04-07T03:46:20;14.98;;;10.48;;
67051;SDS011;53957;47.222;18.670;2023-04-07T03:49:23;17.80;;;12.37;;
67051;SDS011;53957;47.222;18.670;2023-04-07T03:52:26;15.13;;;11.32;;
67051;SDS011;53957;47.222;18.670;2023-04-07T03:55:30;15.75;;;12.32;;
67051;SDS011;53957;47.222;18.670;2023-04-07T03:58:35;14.48;;;11.40;;
67051;SDS011;53957;47.222;18.670;2023-04-07T04:01:39;15.50;;;11.88;;
67051;SDS011;53957;47.222;18.670;2023-04-07T04:04:42;15.32;;;11.48;;
67051;SDS011;53957;47.222;18.670;2023-04-07T04:07:45;14.52;;;11.77;;
67051;SDS011;53957;47.222;18.670;2023-04-07T04:10:49;15.90;;;11.60;;
67051;SDS011;53957;47.222;18.670;2023-04-07T04:13:53;15.18;;;10.93;;
67051;SDS011;53957;47.222;18.670;2023-04-07T04:16:57;17.33;;;11.12;;
67051;SDS011;53957;47.222;18.670;2023-04-07T04:20:00;16.05;;;11.50;;
67051;SDS011;53957;47.222;18.670;2023-04-07T04:23:06;16.15;;;11.88;;
67051;SDS011;53957;47.222;18.670;2023-04-07T04:26:09;19.80;;;12.63;;
67051;SDS011;53957;47.222;18.670;2023-04-07T04:29:13;17.45;;;11.23;;
67051;SDS011;53957;47.222;18.670;2023-04-07T04:32:16;17.35;;;12.18;;
67051;SDS011;53957;47.222;18.670;2023-04-07T04:35:22;13.30;;;11.70;;
67051;SDS011;53957;47.222;18.670;2023-04-07T04:38:26;14.57;;;11.88;;
67051;SDS011;53957;47.222;18.670;2023-04-07T04:41:31;16.02;;;11.98;;
67051;SDS011;53957;47.222;18.670;2023-04-07T04:44:35;17.25;;;12.32;;
67051;SDS011;53957;47.222;18.670;2023-04-07T04:47:39;20.35;;;12.05;;
67051;SDS011;53957;47.222;18.670;2023-04-07T04:50:43;17.52;;;12.75;;
67051;SDS011;53957;47.222;18.670;2023-04-07T04:53:46;16.27;;;11.82;;
67051;SDS011;53957;47.222;18.670;2023-04-07T04:56:50;18.95;;;12.50;;
67051;SDS011;53957;47.222;18.670;2023-04-07T04:59:55;19.20;;;12.55;;
67051;SDS011;53957;47.222;18.670;2023-04-07T05:02:58;15.93;;;11.60;;
67051;SDS011;53957;47.222;18.670;2023-04-07T05:06:01;18.20;;;12.30;;
67051;SDS011;53957;47.222;18.670;2023-04-07T05:09:05;17.42;;;12.35;;
67051;SDS011;53957;47.222;18.670;2023-04-07T05:12:10;16.60;;;12.63;;
67051;SDS011;53957;47.222;18.670;2023-04-07T05:15:14;17.05;;;12.27;;
67051;SDS011;53957;47.222;18.670;2023-04-07T05:18:19;17.10;;;11.82;;
67051;SDS011;53957;47.222;18.670;2023-04-07T05:21:22;21.08;;;13.50;;
67051;SDS011;53957;47.222;18.670;2023-04-07T05:24:27;19.40;;;12.57;;
67051;SDS011;53957;47.222;18.670;2023-04-07T05:27:31;18.83;;;13.07;;
67051;SDS011;53957;47.222;18.670;2023-04-07T05:30:35;17.83;;;12.77;;
67051;SDS011;53957;47.222;18.670;2023-04-07T05:33:38;20.65;;;14.38;;
67051;SDS011;53957;47.222;18.670;2023-04-07T05:36:42;15.57;;;12.68;;
67051;SDS011;53957;47.222;18.670;2023-04-07T05:39:44;21.58;;;13.48;;
67051;SDS011;53957;47.222;18.670;2023-04-07T05:42:48;20.12;;;13.95;;
67051;SDS011;53957;47.222;18.670;2023-04-07T05:45:51;17.85;;;12.95;;
67051;SDS011;53957;47.222;18.670;2023-04-07T05:49:15;20.25;;;13.52;;
67051;SDS011;53957;47.222;18.670;2023-04-07T05:52:23;20.45;;;15.05;;
67051;SDS011;53957;47.222;18.670;2023-04-07T05:55:28;16.62;;;13.40;;
67051;SDS011;53957;47.222;18.670;2023-04-07T05:58:30;19.37;;;12.80;;
67051;SDS011;53957;47.222;18.670;2023-04-07T06:01:34;17.08;;;12.82;;
67051;SDS011;53957;47.222;18.670;2023-04-07T06:04:38;17.25;;;12.30;;
67051;SDS011;53957;47.222;18.670;2023-04-07T06:07:43;21.00;;;12.65;;
67051;SDS011;53957;47.222;18.670;2023-04-07T06:10:48;17.05;;;13.27;;
67051;SDS011;53957;47.222;18.670;2023-04-07T06:13:51;15.65;;;12.65;;
67051;SDS011;53957;47.222;18.670;2023-04-07T06:17:14;19.92;;;13.15;;
67051;SDS011;53957;47.222;18.670;2023-04-07T06:20:17;20.88;;;12.90;;
67051;SDS011;53957;47.222;18.670;2023-04-07T06:23:23;17.95;;;12.65;;
67051;SDS011;53957;47.222;18.670;2023-04-07T06:26:26;17.45;;;11.82;;
67051;SDS011;53957;47.222;18.670;2023-04-07T06:29:31;18.75;;;12.60;;
67051;SDS011;53957;47.222;18.670;2023-04-07T06:32:35;15.43;;;12.43;;
67051;SDS011;53957;47.222;18.670;2023-04-07T06:35:39;20.70;;;12.73;;
67051;SDS011;53957;47.222;18.670;2023-04-07T06:38:42;18.40;;;13.05;;
67051;SDS011;53957;47.222;18.670;2023-04-07T06:41:45;18.20;;;13.25;;
67051;SDS011;53957;47.222;18.670;2023-04-07T06:44:48;18.35;;;12.57;;
67051;SDS011;53957;47.222;18.670;2023-04-07T06:47:51;17.83;;;13.10;;
67051;SDS011;53957;47.222;18.670;2023-04-07T06:50:54;22.30;;;11.63;;
67051;SDS011;53957;47.222;18.670;2023-04-07T06:53:57;21.42;;;13.73;;
67051;SDS011;53957;47.222;18.670;2023-04-07T07:08:54;15.75;;;11.57;;
67051;SDS011;53957;47.222;18.670;2023-04-07T07:11:57;22.17;;;13.90;;
67051;SDS011;53957;47.222;18.670;2023-04-07T07:15:01;17.35;;;12.10;;
67051;SDS011;53957;47.222;18.670;2023-04-07T07:18:04;21.58;;;13.60;;
67051;SDS011;53957;47.222;18.670;2023-04-07T07:21:07;17.95;;;12.07;;
67051;SDS011;53957;47.222;18.670;2023-04-07T07:24:10;17.67;;;13.60;;
67051;SDS011;53957;47.222;18.670;2023-04-07T07:27:13;17.25;;;12.55;;
67051;SDS011;53957;47.222;18.670;2023-04-07T07:30:17;17.67;;;13.15;;
67051;SDS011;53957;47.222;18.670;2023-04-07T07:33:21;20.52;;;12.70;;
67051;SDS011;53957;47.222;18.670;2023-04-07T07:36:25;20.12;;;12.68;;
67051;SDS011;53957;47.222;18.670;2023-04-07T07:39:28;15.75;;;12.32;;
67051;SDS011;53957;47.222;18.670;2023-04-07T07:42:31;17.92;;;13.10;;
67051;SDS011;53957;47.222;18.670;2023-04-07T07:45:34;18.00;;;12.55;;
67051;SDS011;53957;47.222;18.670;2023-04-07T07:48:38;17.35;;;12.93;;
67051;SDS011;53957;47.222;18.670;2023-04-07T07:51:40;18.92;;;14.13;;
67051;SDS011;53957;47.222;18.670;2023-04-07T07:54:44;17.05;;;13.02;;
67051;SDS011;53957;47.222;18.670;2023-04-07T07:57:46;17.58;;;12.40;;
67051;SDS011;53957;47.222;18.670;2023-04-07T08:00:50;18.08;;;11.55;;
67051;SDS011;53957;47.222;18.670;2023-04-07T08:03:53;20.75;;;12.85;;
67051;SDS011;53957;47.222;18.670;2023-04-07T08:06:56;16.92;;;12.15;;
67051;SDS011;53957;47.222;18.670;2023-04-07T08:09:59;16.33;;;12.52;;
67051;SDS011;53957;47.222;18.670;2023-04-07T08:13:02;18.80;;;13.50;;
67051;SDS011;53957;47.222;18.670;2023-04-07T08:16:07;18.95;;;13.07;;
67051;SDS011;53957;47.222;18.670;2023-04-07T08:19:10;20.62;;;12.68;;
67051;SDS011;53957;47.222;18.670;2023-04-07T08:22:16;19.20;;;13.62;;
67051;SDS011;53957;47.222;18.670;2023-04-07T08:25:20;15.55;;;10.00;;
67051;SDS011;53957;47.222;18.670;2023-04-07T08:28:25;15.75;;;12.15;;
67051;SDS011;53957;47.222;18.670;2023-04-07T08:31:28;19.75;;;12.43;;
67051;SDS011;53957;47.222;18.670;2023-04-07T08:34:31;15.18;;;12.23;;
67051;SDS011;53957;47.222;18.670;2023-04-07T08:37:34;17.95;;;12.43;;
67051;SDS011;53957;47.222;18.670;2023-04-07T08:40:39;15.45;;;12.37;;
67051;SDS011;53957;47.222;18.670;2023-04-07T08:43:42;20.20;;;13.40;;
67051;SDS011;53957;47.222;18.670;2023-04-07T08:47:07;17.60;;;13.52;;
67051;SDS011;53957;47.222;18.670;2023-04-07T08:50:27;14.87;;;11.52;;
67051;SDS011;53957;47.222;18.670;2023-04-07T08:53:34;17.87;;;13.18;;
67051;SDS011;53957;47.222;18.670;2023-04-07T08:56:52;18.23;;;12.88;;
67051;SDS011;53957;47.222;18.670;2023-04-07T08:59:56;15.75;;;12.27;;
67051;SDS011;53957;47.222;18.670;2023-04-07T09:03:02;17.30;;;12.73;;
67051;SDS011;53957;47.222;18.670;2023-04-07T09:06:26;17.50;;;11.95;;
67051;SDS011;53957;47.222;18.670;2023-04-07T09:09:29;17.33;;;12.85;;
67051;SDS011;53957;47.222;18.670;2023-04-07T09:12:34;16.77;;;12.23;;
67051;SDS011;53957;47.222;18.670;2023-04-07T09:15:38;15.95;;;12.07;;
67051;SDS011;53957;47.222;18.670;2023-04-07T09:18:42;12.52;;;10.07;;
67051;SDS011;53957;47.222;18.670;2023-04-07T09:21:49;14.90;;;10.52;;
67051;SDS011;53957;47.222;18.670;2023-04-07T09:25:07;13.98;;;11.23;;
67051;SDS011;53957;47.222;18.670;2023-04-07T09:28:11;13.10;;;11.10;;
67051;SDS011;53957;47.222;18.670;2023-04-07T09:31:15;14.38;;;11.40;;
67051;SDS011;53957;47.222;18.670;2023-04-07T09:34:28;16.92;;;11.57;;
67051;SDS011;53957;47.222;18.670;2023-04-07T09:37:33;14.48;;;11.07;;
67051;SDS011;53957;47.222;18.670;2023-04-07T09:40:37;19.48;;;12.35;;
67051;SDS011;53957;47.222;18.670;2023-04-07T09:43:41;15.25;;;12.02;;
67051;SDS011;53957;47.222;18.670;2023-04-07T09:46:50;15.10;;;12.10;;
67051;SDS011;53957;47.222;18.670;2023-04-07T09:49:54;16.77;;;12.48;;
67051;SDS011;53957;47.222;18.670;2023-04-07T09:52:58;15.52;;;11.90;;
67051;SDS011;53957;47.222;18.670;2023-04-07T09:56:01;16.30;;;11.88;;
67051;SDS011;53957;47.222;18.670;2023-04-07T09:59:05;13.98;;;11.55;;
67051;SDS011;53957;47.222;18.670;2023-04-07T10:02:10;16.58;;;12.32;;
67051;SDS011;53957;47.222;18.670;2023-04-07T10:05:17;15.70;;;11.70;;
67051;SDS011;53957;47.222;18.670;2023-04-07T10:08:22;13.27;;;10.75;;
67051;SDS011;53957;47.222;18.670;2023-04-07T10:11:26;14.68;;;11.80;;
67051;SDS011;53957;47.222;18.670;2023-04-07T10:14:30;16.67;;;11.82;;
67051;SDS011;53957;47.222;18.670;2023-04-07T10:17:35;16.10;;;12.35;;
67051;SDS011;53957;47.222;18.670;2023-04-07T10:20:40;14.75;;;12.25;;
67051;SDS011;53957;47.222;18.670;2023-04-07T10:27:06;17.62;;;12.63;;
67051;SDS011;53957;47.222;18.670;2023-04-07T10:30:19;18.42;;;11.70;;
67051;SDS011;53957;47.222;18.670;2023-04-07T10:33:46;15.30;;;11.98;;
67051;SDS011;53957;47.222;18.670;2023-04-07T10:43:38;15.95;;;11.15;;
67051;SDS011;53957;47.222;18.670;2023-04-07T10:53:14;17.23;;;12.45;;
67051;SDS011;53957;47.222;18.670;2023-04-07T10:56:17;16.20;;;12.00;;
67051;SDS011;53957;47.222;18.670;2023-04-07T10:59:20;17.83;;;12.00;;
67051;SDS011;53957;47.222;18.670;2023-04-07T11:02:29;11.70;;;9.98;;
67051;SDS011;53957;47.222;18.670;2023-04-07T11:05:34;15.48;;;11.98;;
67051;SDS011;53957;47.222;18.670;2023-04-07T11:08:41;16.40;;;12.80;;
67051;SDS011;53957;47.222;18.670;2023-04-07T11:14:53;18.55;;;11.80;;
67051;SDS011;53957;47.222;18.670;2023-04-07T11:18:17;17.40;;;12.77;;
67051;SDS011;53957;47.222;18.670;2023-04-07T11:21:24;17.58;;;12.40;;
67051;SDS011;53957;47.222;18.670;2023-04-07T11:46:24;14.75;;;11.50;;
67051;SDS011;53957;47.222;18.670;2023-04-07T11:49:27;15.32;;;12.05;;
67051;SDS011;53957;47.222;18.670;2023-04-07T11:52:47;13.07;;;11.27;;
67051;SDS011;53957;47.222;18.670;2023-04-07T11:55:57;14.15;;;11.23;;
67051;SDS011;53957;47.222;18.670;2023-04-07T11:59:04;13.65;;;11.30;;
67051;SDS011;53957;47.222;18.670;2023-04-07T12:02:07;17.17;;;12.00;;
67051;SDS011;53957;47.222;18.670;2023-04-07T12:05:11;15.18;;;11.00;;
67051;SDS011;53957;47.222;18.670;2023-04-07T12:08:14;13.15;;;10.20;;
67051;SDS011;53957;47.222;18.670;2023-04-07T12:11:18;14.25;;;11.38;;
67051;SDS011;53957;47.222;18.670;2023-04-07T12:14:21;17.42;;;12.30;;
67051;SDS011;53957;47.222;18.670;2023-04-07T12:17:25;15.30;;;11.52;;
67051;SDS011;53957;47.222;18.670;2023-04-07T12:20:28;23.52;;;10.90;;
67051;SDS011;53957;47.222;18.670;2023-04-07T12:23:32;14.27;;;11.02;;
67051;SDS011;53957;47.222;18.670;2023-04-07T12:26:35;15.13;;;10.93;;
67051;SDS011;53957;47.222;18.670;2023-04-07T12:29:39;14.98;;;10.98;;
67051;SDS011;53957;47.222;18.670;2023-04-07T12:32:42;14.93;;;11.05;;
67051;SDS011;53957;47.222;18.670;2023-04-07T12:35:45;17.15;;;11.05;;
67051;SDS011;53957;47.222;18.670;2023-04-07T12:38:47;15.98;;;11.02;;
67051;SDS011;53957;47.222;18.670;2023-04-07T12:41:51;16.42;;;11.82;;
67051;SDS011;53957;47.222;18.670;2023-04-07T12:44:54;14.68;;;11.57;;
67051;SDS011;53957;47.222;18.670;2023-04-07T12:47:58;16.23;;;11.38;;
67051;SDS011;53957;47.222;18.670;2023-04-07T12:51:01;16.17;;;11.63;;
67051;SDS011;53957;47.222;18.670;2023-04-07T12:54:05;14.48;;;11.65;;
67051;SDS011;53957;47.222;18.670;2023-04-07T12:57:07;13.88;;;10.98;;
67051;SDS011;53957;47.222;18.670;2023-04-07T13:00:10;14.10;;;10.85;;
67051;SDS011;53957;47.222;18.670;2023-04-07T13:03:14;14.85;;;11.48;;
67051;SDS011;53957;47.222;18.670;2023-04-07T13:06:17;16.48;;;11.73;;
67051;SDS011;53957;47.222;18.670;2023-04-07T13:09:20;17.65;;;11.88;;
67051;SDS011;53957;47.222;18.670;2023-04-07T13:12:23;18.12;;;13.10;;
67051;SDS011;53957;47.222;18.670;2023-04-07T13:15:27;16.80;;;11.75;;
67051;SDS011;53957;47.222;18.670;2023-04-07T13:18:30;15.48;;;11.73;;
67051;SDS011;53957;47.222;18.670;2023-04-07T13:21:33;14.73;;;11.52;;
67051;SDS011;53957;47.222;18.670;2023-04-07T13:24:48;18.08;;;11.23;;
67051;SDS011;53957;47.222;18.670;2023-04-07T13:27:51;14.77;;;11.65;;
67051;SDS011;53957;47.222;18.670;2023-04-07T13:30:54;13.43;;;10.75;;
67051;SDS011;53957;47.222;18.670;2023-04-07T13:33:57;15.30;;;11.07;;
67051;SDS011;53957;47.222;18.670;2023-04-07T13:37:00;13.27;;;10.98;;
67051;SDS011;53957;47.222;18.670;2023-04-07T13:40:04;14.45;;;11.30;;
67051;SDS011;53957;47.222;18.670;2023-04-07T13:43:08;15.02;;;12.05;;
67051;SDS011;53957;47.222;18.670;2023-04-07T13:46:12;14.15;;;11.05;;
67051;SDS011;53957;47.222;18.670;2023-04-07T13:49:30;14.82;;;11.02;;
67051;SDS011;53957;47.222;18.670;2023-04-07T13:52:32;15.05;;;11.40;;
67051;SDS011;53957;47.222;18.670;2023-04-07T13:55:37;17.30;;;12.07;;
67051;SDS011;53957;47.222;18.670;2023-04-07T13:58:40;15.07;;;10.95;;
67051;SDS011;53957;47.222;18.670;2023-04-07T14:01:43;13.52;;;10.95;;
67051;SDS011;53957;47.222;18.670;2023-04-07T14:04:47;14.80;;;11.40;;
67051;SDS011;53957;47.222;18.670;2023-04-07T14:07:49;16.87;;;12.30;;
67051;SDS011;53957;47.222;18.670;2023-04-07T14:10:53;14.73;;;11.55;;
67051;SDS011;53957;47.222;18.670;2023-04-07T14:13:55;15.63;;;11.30;;
67051;SDS011;53957;47.222;18.670;2023-04-07T14:16:58;15.80;;;12.32;;
67051;SDS011;53957;47.222;18.670;2023-04-07T14:20:01;15.57;;;11.63;;
67051;SDS011;53957;47.222;18.670;2023-04-07T14:23:05;15.80;;;11.82;;
67051;SDS011;53957;47.222;18.670;2023-04-07T14:26:08;13.88;;;10.90;;
67051;SDS011;53957;47.222;18.670;2023-04-07T14:29:13;16.12;;;12.23;;
67051;SDS011;53957;47.222;18.670;2023-04-07T14:32:16;16.67;;;11.77;;
67051;SDS011;53957;47.222;18.670;2023-04-07T14:35:19;14.65;;;11.48;;
67051;SDS011;53957;47.222;18.670;2023-04-07T14:38:22;20.50;;;12.48;;
67051;SDS011;53957;47.222;18.670;2023-04-07T14:41:33;15.30;;;11.57;;
67051;SDS011;53957;47.222;18.670;2023-04-07T14:44:36;14.80;;;11.65;;
67051;SDS011;53957;47.222;18.670;2023-04-07T14:47:39;16.95;;;12.23;;
67051;SDS011;53957;47.222;18.670;2023-04-07T14:50:43;16.87;;;12.50;;
67051;SDS011;53957;47.222;18.670;2023-04-07T14:53:48;14.93;;;11.60;;
67051;SDS011;53957;47.222;18.670;2023-04-07T14:56:57;17.77;;;12.57;;
67051;SDS011;53957;47.222;18.670;2023-04-07T15:00:00;16.48;;;12.63;;
67051;SDS011;53957;47.222;18.670;2023-04-07T15:03:04;17.37;;;11.10;;
67051;SDS011;53957;47.222;18.670;2023-04-07T15:06:11;16.30;;;12.15;;
67051;SDS011;53957;47.222;18.670;2023-04-07T15:09:19;15.23;;;11.93;;
67051;SDS011;53957;47.222;18.670;2023-04-07T15:12:22;16.33;;;11.93;;
67051;SDS011;53957;47.222;18.670;2023-04-07T15:15:25;16.33;;;11.85;;
67051;SDS011;53957;47.222;18.670;2023-04-07T15:18:28;15.82;;;12.15;;
67051;SDS011;53957;47.222;18.670;2023-04-07T15:21:30;15.27;;;11.23;;
67051;SDS011;53957;47.222;18.670;2023-04-07T15:24:34;13.98;;;10.85;;
67051;SDS011;53957;47.222;18.670;2023-04-07T15:27:36;18.37;;;11.12;;
67051;SDS011;53957;47.222;18.670;2023-04-07T15:30:41;17.00;;;11.40;;
67051;SDS011;53957;47.222;18.670;2023-04-07T15:33:44;17.85;;;12.32;;
67051;SDS011;53957;47.222;18.670;2023-04-07T15:36:47;17.73;;;12.35;;
67051;SDS011;53957;47.222;18.670;2023-04-07T15:39:50;15.88;;;12.30;;
67051;SDS011;53957;47.222;18.670;2023-04-07T15:42:53;17.85;;;11.63;;
67051;SDS011;53957;47.222;18.670;2023-04-07T15:45:56;14.82;;;11.32;;
67051;SDS011;53957;47.222;18.670;2023-04-07T15:48:59;23.12;;;13.10;;
67051;SDS011;53957;47.222;18.670;2023-04-07T15:52:05;15.80;;;11.98;;
67051;SDS011;53957;47.222;18.670;2023-04-07T15:55:08;15.95;;;12.23;;
67051;SDS011;53957;47.222;18.670;2023-04-07T15:58:11;14.23;;;11.18;;
67051;SDS011;53957;47.222;18.670;2023-04-07T16:01:15;15.23;;;11.60;;
67051;SDS011;53957;47.222;18.670;2023-04-07T16:04:18;13.48;;;11.10;;
67051;SDS011;53957;47.222;18.670;2023-04-07T16:07:21;13.98;;;11.12;;
67051;SDS011;53957;47.222;18.670;2023-04-07T16:10:27;17.27;;;12.07;;
67051;SDS011;53957;47.222;18.670;2023-04-07T16:13:30;23.42;;;13.13;;
67051;SDS011;53957;47.222;18.670;2023-04-07T16:16:33;14.55;;;11.05;;
67051;SDS011;53957;47.222;18.670;2023-04-07T16:19:38;14.75;;;10.93;;
67051;SDS011;53957;47.222;18.670;2023-04-07T16:22:41;16.50;;;11.40;;
67051;SDS011;53957;47.222;18.670;2023-04-07T16:25:46;14.55;;;11.63;;
67051;SDS011;53957;47.222;18.670;2023-04-07T16:28:50;15.65;;;10.27;;
67051;SDS011;53957;47.222;18.670;2023-04-07T16:31:53;15.65;;;12.13;;
67051;SDS011;53957;47.222;18.670;2023-04-07T16:34:56;16.48;;;11.75;;
67051;SDS011;53957;47.222;18.670;2023-04-07T16:37:58;16.23;;;11.52;;
67051;SDS011;53957;47.222;18.670;2023-04-07T16:41:06;16.37;;;11.73;;
67051;SDS011;53957;47.222;18.670;2023-04-07T16:44:09;21.37;;;12.55;;
67051;SDS011;53957;47.222;18.670;2023-04-07T16:47:12;16.20;;;12.27;;
67051;SDS011;53957;47.222;18.670;2023-04-07T16:50:16;17.90;;;11.45;;
67051;SDS011;53957;47.222;18.670;2023-04-07T16:53:19;17.48;;;12.02;;
67051;SDS011;53957;47.222;18.670;2023-04-07T16:56:23;15.50;;;11.55;;
67051;SDS011;53957;47.222;18.670;2023-04-07T16:59:27;14.50;;;11.68;;
67051;SDS011;53957;47.222;18.670;2023-04-07T17:02:29;15.18;;;11.10;;
67051;SDS011;53957;47.222;18.670;2023-04-07T17:05:32;14.35;;;11.80;;
67051;SDS011;53957;47.222;18.670;2023-04-07T17:08:37;17.48;;;11.52;;
67051;SDS011;53957;47.222;18.670;2023-04-07T17:11:41;17.33;;;11.85;;
67051;SDS011;53957;47.222;18.670;2023-04-07T17:18:11;20.92;;;11.77;;
67051;SDS011;53957;47.222;18.670;2023-04-07T17:21:14;16.05;;;12.30;;
67051;SDS011;53957;47.222;18.670;2023-04-07T17:24:17;18.98;;;13.35;;
67051;SDS011;53957;47.222;18.670;2023-04-07T17:27:20;16.45;;;12.88;;
67051;SDS011;53957;47.222;18.670;2023-04-07T17:30:23;25.67;;;18.20;;
67051;SDS011;53957;47.222;18.670;2023-04-07T17:33:26;25.23;;;16.92;;
67051;SDS011;53957;47.222;18.670;2023-04-07T17:36:31;26.45;;;19.67;;
67051;SDS011;53957;47.222;18.670;2023-04-07T17:39:35;35.45;;;24.63;;
67051;SDS011;53957;47.222;18.670;2023-04-07T17:42:38;36.92;;;24.98;;
67051;SDS011;53957;47.222;18.670;2023-04-07T17:45:41;45.65;;;27.60;;
67051;SDS011;53957;47.222;18.670;2023-04-07T17:48:44;49.63;;;28.92;;
67051;SDS011;53957;47.222;18.670;2023-04-07T17:51:47;33.13;;;23.42;;
67051;SDS011;53957;47.222;18.670;2023-04-07T17:54:49;33.58;;;20.83;;
67051;SDS011;53957;47.222;18.670;2023-04-07T17:57:52;42.80;;;25.50;;
67051;SDS011;53957;47.222;18.670;2023-04-07T18:01:01;37.92;;;23.40;;
67051;SDS011;53957;47.222;18.670;2023-04-07T18:04:04;43.95;;;25.27;;
67051;SDS011;53957;47.222;18.670;2023-04-07T18:07:08;37.50;;;23.55;;
67051;SDS011;53957;47.222;18.670;2023-04-07T18:10:14;29.87;;;20.98;;
67051;SDS011;53957;47.222;18.670;2023-04-07T18:13:17;32.55;;;21.15;;
67051;SDS011;53957;47.222;18.670;2023-04-07T18:16:20;31.33;;;19.10;;
67051;SDS011;53957;47.222;18.670;2023-04-07T18:19:25;22.85;;;17.35;;
67051;SDS011;53957;47.222;18.670;2023-04-07T18:22:31;29.40;;;18.50;;
67051;SDS011;53957;47.222;18.670;2023-04-07T18:25:34;25.70;;;17.55;;
67051;SDS011;53957;47.222;18.670;2023-04-07T18:28:38;24.37;;;17.17;;
67051;SDS011;53957;47.222;18.670;2023-04-07T18:31:40;27.75;;;18.62;;
67051;SDS011;53957;47.222;18.670;2023-04-07T18:34:47;25.88;;;18.25;;
67051;SDS011;53957;47.222;18.670;2023-04-07T18:37:50;24.42;;;17.08;;
67051;SDS011;53957;47.222;18.670;2023-04-07T18:40:53;26.65;;;17.37;;
67051;SDS011;53957;47.222;18.670;2023-04-07T18:43:56;29.20;;;18.55;;
67051;SDS011;53957;47.222;18.670;2023-04-07T18:46:59;25.30;;;17.40;;
67051;SDS011;53957;47.222;18.670;2023-04-07T18:50:02;27.02;;;17.62;;
67051;SDS011;53957;47.222;18.670;2023-04-07T18:53:06;27.30;;;17.87;;
67051;SDS011;53957;47.222;18.670;2023-04-07T18:56:09;27.35;;;16.60;;
67051;SDS011;53957;47.222;18.670;2023-04-07T18:59:12;25.98;;;16.90;;